Latest Weather Observations for Yamba

IDN60801

Issued at 11:05 am EDT Saturday 22 November 2014 (issued every 30 minutes, with the page automatically refreshed every 10 minutes)

About weather observations | Map of weather stations | Latest weather observations for NSW | Other Formats
Station Details ID: 058012 Name: YAMBA PILOT STATION Lat: -29.43 Lon: 153.36 Height: 27.4 m
Data from the previous 72 hours. | See also: Recent months at Yamba
Date/Time
EDT
Temp
°C
App
Temp
°C
Dew
Point
Rel
Hum
%
Delta-T
°C
Wind Press
QNH
hPa
Press
MSL
hPa
Rain
since 9 am
mm
Dir
 
Spd
km/h
Gust
km/h
Spd
kts
Gust
kts
22/11:00am 25.5 24.9 22.0 81 2.3 SSE 28 35 15 19 1013.7 - 0.0
22/10:35am 25.1 24.4 21.8 82 2.2 SSE 28 39 15 21 1013.8 - 0.0
22/10:30am 25.5 25.7 22.0 81 2.3 SSE 24 35 13 19 1013.8 - 0.0
22/10:00am 25.8 27.1 22.3 81 2.4 SE 19 24 10 13 1013.8 - 0.0
22/09:30am 26.0 29.6 22.3 80 2.5 NNE 7 13 4 7 1013.5 - 0.0
22/09:00am 25.8 29.5 22.5 82 2.2 N 7 11 4 6 1013.3 1013.2 0.0
22/08:30am 25.1 28.4 22.6 86 1.7 N 9 15 5 8 1013.0 - 0.0
22/08:00am 24.0 27.2 22.4 91 1.1 N 9 15 5 8 1012.6 - 0.0
22/07:30am 23.4 27.1 22.6 95 0.5 N 7 15 4 8 1012.3 - 0.0
22/07:00am 22.4 24.7 22.1 98 0.2 N 13 22 7 12 1011.9 - 0.0
22/06:30am 22.1 24.4 22.1 100 0.0 N 13 26 7 14 1011.7 - 0.0
22/06:00am 22.0 25.0 22.0 100 0.0 N 9 13 5 7 1011.3 1011.2 0.0
22/05:30am 22.1 24.8 22.1 100 0.0 N 11 20 6 11 1010.5 - 0.0
22/05:00am 22.3 25.1 22.3 100 0.0 N 11 19 6 10 1010.2 - 0.0
22/04:30am 22.2 24.6 22.2 100 0.0 N 13 20 7 11 1009.7 - 0.0
22/04:00am 22.1 24.4 22.1 100 0.0 N 13 24 7 13 1009.6 - 0.0
22/03:30am 21.8 24.0 21.8 100 0.0 N 13 20 7 11 1009.4 - 0.0
22/03:00am 21.6 23.6 21.6 100 0.0 N 13 22 7 12 1009.4 1009.3 0.0
22/02:30am 21.8 24.2 21.6 99 0.1 N 11 20 6 11 1009.4 - 0.0
22/02:00am 22.0 24.5 21.8 99 0.1 N 11 19 6 10 1009.5 - 0.0
22/01:30am 22.1 24.3 21.9 99 0.1 N 13 24 7 13 1009.4 - 0.0
22/01:00am 22.0 24.1 21.7 98 0.2 N 13 20 7 11 1009.5 - 0.0
22/12:30am 22.1 24.1 21.6 97 0.3 N 13 22 7 12 1009.9 - 0.0
22/12:00am 22.3 24.8 21.8 97 0.3 N 11 19 6 10 1010.2 1010.1 0.0
 
Date/Time
EDT
Temp
°C
App
Temp
°C
Dew
Point
Rel
Hum
%
Delta-T
°C
Wind Press
QNH
hPa
Press
MSL
hPa
Rain
since 9 am
mm
Dir
 
Spd
km/h
Gust
km/h
Spd
kts
Gust
kts
21/11:30pm 22.4 25.0 21.9 97 0.3 N 11 17 6 9 1010.3 - 0.0
21/11:00pm 22.5 25.1 22.0 97 0.3 N 11 19 6 10 1010.3 - 0.0
21/10:30pm 22.4 24.2 21.9 97 0.3 N 15 24 8 13 1009.9 - 0.0
21/10:00pm 22.4 24.6 21.9 97 0.3 N 13 20 7 11 1009.6 - 0.0
21/09:30pm 22.3 24.1 21.8 97 0.3 N 15 30 8 16 1009.5 - 0.0
21/09:00pm 22.4 23.8 21.9 97 0.3 N 17 30 9 16 1009.1 1009.0 0.0
21/08:30pm 22.4 23.4 21.7 96 0.5 N 19 32 10 17 1009.0 - 0.0
21/08:00pm 22.4 23.7 21.6 95 0.5 N 17 33 9 18 1008.8 - 0.0
21/07:30pm 22.6 23.6 21.8 95 0.5 N 19 32 10 17 1008.6 - 0.0
21/07:00pm 22.9 23.8 21.5 92 0.9 N 19 30 10 16 1008.2 - 0.0
21/06:30pm 23.7 24.6 21.6 88 1.4 N 19 32 10 17 1008.3 - 0.0
21/06:00pm 24.6 26.2 22.1 86 1.7 N 17 30 9 16 1008.0 1007.9 0.0
21/05:30pm 23.9 24.7 21.8 88 1.4 N 20 32 11 17 1007.5 - 0.0
21/05:00pm 25.0 26.1 21.9 83 2.1 N 19 32 10 17 1007.2 - 0.0
21/04:30pm 25.6 26.0 21.7 79 2.6 N 22 35 12 19 1007.5 - 0.0
21/04:00pm 26.5 27.0 21.9 76 3.1 N 22 35 12 19 1007.7 - 0.0
21/03:30pm 27.1 28.2 22.3 75 3.2 N 20 32 11 17 1008.1 - 0.0
21/03:00pm 27.6 29.1 23.0 76 3.1 N 20 32 11 17 1008.5 1008.4 0.0
21/02:30pm 27.5 28.9 22.9 76 3.1 N 20 35 11 19 1009.0 - 0.0
21/02:00pm 27.5 29.0 22.7 75 3.3 N 19 32 10 17 1009.6 - 0.0
21/01:30pm 27.8 29.5 23.0 75 3.3 N 19 32 10 17 1010.2 - 0.0
21/01:00pm 27.5 29.5 22.2 73 3.6 N 15 24 8 13 1010.8 - 0.0
21/12:30pm 27.6 29.7 22.5 74 3.5 N 15 26 8 14 1011.3 - 0.0
21/12:00pm 28.2 30.8 23.3 75 3.4 N 15 24 8 13 1012.0 1011.9 0.0
21/11:30am 27.3 30.0 22.9 77 3.0 N 13 20 7 11 1012.5 - 0.0
21/11:00am 26.4 28.8 22.3 78 2.8 N 13 20 7 11 1012.7 - 0.0
21/10:30am 26.6 29.7 22.2 77 3.0 N 9 15 5 8 1013.3 - 0.0
21/10:00am 26.6 29.7 22.9 80 2.5 N 11 17 6 9 1013.4 - 0.0
21/09:30am 25.5 28.1 22.0 81 2.3 N 11 19 6 10 1013.6 - 0.0
21/09:00am 25.2 27.9 22.1 83 2.1 N 11 20 6 11 1014.0 1013.9 0.0
21/08:30am 24.7 27.4 22.2 86 1.7 N 11 17 6 9 1013.8 - 0.0
21/08:00am 23.8 26.7 22.4 92 0.9 N 11 19 6 10 1013.9 - 0.0
21/07:30am 22.7 24.9 21.9 95 0.5 N 13 20 7 11 1013.7 - 0.0
21/07:00am 22.4 25.1 22.1 98 0.2 N 11 17 6 9 1013.7 - 0.0
21/06:30am 21.9 24.4 21.7 99 0.1 N 11 17 6 9 1013.5 - 0.0
21/06:00am 21.6 24.3 21.4 99 0.1 N 9 15 5 8 1013.1 1013.1 0.0
21/05:30am 21.6 23.9 21.4 99 0.1 N 11 17 6 9 1013.1 - 0.0
21/05:00am 21.7 24.5 21.5 99 0.1 N 9 17 5 9 1012.8 - 0.0
21/04:30am 21.5 24.1 21.2 98 0.2 N 9 15 5 8 1012.7 - 0.0
21/04:00am 21.5 24.1 21.2 98 0.2 N 9 13 5 7 1012.7 - 0.0
21/03:30am 21.6 24.6 21.3 98 0.2 N 7 13 4 7 1012.7 - 0.0
21/03:00am 21.7 24.3 21.2 97 0.3 N 9 15 5 8 1012.8 1012.7 0.0
21/02:30am 21.9 24.6 21.4 97 0.3 N 9 15 5 8 1012.8 - 0.0
21/02:00am 21.9 24.5 21.2 96 0.5 N 9 20 5 11 1012.9 - 0.0
21/01:30am 22.0 24.2 21.2 95 0.5 N 11 19 6 10 1013.2 - 0.0
21/01:00am 22.0 23.8 21.2 95 0.5 N 13 20 7 11 1013.7 - 0.0
21/12:30am 22.2 24.1 21.4 95 0.5 N 13 20 7 11 1013.9 - 0.0
21/12:00am 22.3 24.2 21.3 94 0.7 N 13 24 7 13 1014.4 1014.2 0.0
 
Date/Time
EDT
Temp
°C
App
Temp
°C
Dew
Point
Rel
Hum
%
Delta-T
°C
Wind Press
QNH
hPa
Press
MSL
hPa
Rain
since 9 am
mm
Dir
 
Spd
km/h
Gust
km/h
Spd
kts
Gust
kts
20/11:30pm 22.4 24.3 21.4 94 0.7 N 13 20 7 11 1014.5 - 0.0
20/11:00pm 22.4 24.6 21.2 93 0.8 N 11 17 6 9 1014.7 - 0.0
20/10:30pm 22.5 23.9 21.1 92 0.9 N 15 26 8 14 1014.7 - 0.0
20/10:00pm 22.6 23.4 21.4 93 0.8 N 19 32 10 17 1013.8 - 0.0
20/09:30pm 22.7 23.8 21.3 92 0.9 N 17 30 9 16 1013.7 - 0.0
20/09:00pm 22.7 23.5 21.3 92 0.9 N 19 35 10 19 1013.6 1013.5 0.0
20/08:30pm 22.9 23.8 21.5 92 0.9 N 19 32 10 17 1013.0 - 0.0
20/08:00pm 22.9 23.6 21.2 90 1.1 N 19 30 10 16 1012.8 - 0.0
20/07:30pm 22.9 23.6 21.2 90 1.1 N 19 30 10 16 1012.5 - 0.0
20/07:00pm 23.4 24.3 21.5 89 1.3 N 19 30 10 16 1012.3 - 0.0
20/06:30pm 24.1 25.0 21.6 86 1.7 N 19 32 10 17 1011.9 - 0.0
20/06:00pm 24.6 25.3 21.5 83 2.1 N 20 35 11 19 1011.8 1011.6 0.0
20/05:30pm 25.4 25.9 21.9 81 2.3 N 22 39 12 21 1011.6 - 0.0
20/05:00pm 25.8 26.3 21.9 79 2.6 N 22 33 12 18 1012.0 - 0.0
20/04:30pm 26.1 26.9 21.7 77 2.9 N 20 39 11 21 1012.2 - 0.0
20/04:00pm 26.6 27.4 21.8 75 3.2 N 20 33 11 18 1012.6 - 0.0
20/03:30pm 26.6 26.7 21.8 75 3.2 NNE 24 39 13 21 1013.0 - 0.0
20/03:00pm 27.1 27.1 21.6 72 3.7 NNE 24 37 13 20 1013.5 1013.5 0.0
20/02:30pm 27.0 27.4 21.7 73 3.5 N 22 37 12 20 1014.1 - 0.0
20/02:00pm 27.3 28.2 22.0 73 3.6 N 20 35 11 19 1014.5 - 0.0
20/01:30pm 27.5 28.5 21.8 71 3.8 NNE 19 32 10 17 1015.0 - 0.0
20/01:00pm 27.9 29.6 22.4 72 3.7 N 17 28 9 15 1015.5 - 0.0
20/12:30pm 27.3 29.3 22.3 74 3.4 NNE 15 26 8 14 1016.1 - 0.0
20/12:00pm 27.2 29.3 22.4 75 3.2 N 15 22 8 12 1016.7 1016.5 0.0
20/11:30am 26.5 28.8 22.1 77 3.0 N 13 20 7 11 1017.2 - 0.0
20/11:00am 26.1 29.2 22.8 82 2.2 NE 11 17 6 9 1017.6 - 0.0
20/10:30am 25.6 28.5 22.5 83 2.1 ENE 11 17 6 9 1017.9 - 0.0
20/10:00am 26.1 30.2 23.2 84 2.0 NNE 7 11 4 6 1017.9 - 0.0
20/09:30am 23.9 27.0 21.4 86 1.6 N 7 11 4 6 1017.8 - 0.0
20/09:00am 23.5 26.8 21.8 90 1.1 NW 7 9 4 5 1017.8 1017.6 7.2
20/08:30am 23.4 27.3 22.6 95 0.5 NNW 6 9 3 5 1017.8 - 7.2
20/08:00am 23.0 26.7 22.2 95 0.5 NNW 6 9 3 5 1017.8 - 7.2
20/07:30am 22.3 26.3 22.1 99 0.1 NNW 4 7 2 4 1017.5 - 7.2
20/07:00am 22.3 25.9 22.3 100 0.0 NNW 7 11 4 6 1017.6 - 7.2
20/06:30am 22.2 27.0 22.2 100 0.0 CALM 0 0 0 0 1017.3 - 7.2
20/06:00am 21.8 26.0 21.8 100 0.0 W 2 6 1 3 1016.6 1016.4 7.2
20/05:30am 21.9 24.9 21.9 100 0.0 WNW 9 13 5 7 1016.0 - 7.2
20/05:00am 22.0 25.4 22.0 100 0.0 NNW 7 11 4 6 1016.0 - 7.2
20/04:30am 22.2 25.8 22.0 99 0.1 NNW 6 13 3 7 1016.2 - 7.2
20/04:00am 22.2 25.2 22.0 99 0.1 N 9 15 5 8 1015.8 - 7.2
20/03:30am 22.4 25.1 22.1 98 0.2 N 11 17 6 9 1015.9 - 7.2
20/03:00am 22.3 24.5 21.8 97 0.3 NNE 13 20 7 11 1016.2 1016.0 7.2
20/02:30am 22.5 24.5 22.2 98 0.2 NNE 15 24 8 13 1016.2 - 7.2
20/02:00am 22.5 24.5 22.2 98 0.2 NNE 15 24 8 13 1016.2 - 7.2
20/01:30am 22.6 24.7 22.4 99 0.1 N 15 22 8 12 1016.6 - 6.8
20/01:00am 22.6 24.6 22.3 98 0.2 NNE 15 22 8 12 1016.7 - 6.8
20/12:30am 22.7 25.7 22.7 100 0.0 N 11 20 6 11 1017.0 - 6.8
20/12:00am 22.6 25.6 22.6 100 0.0 N 11 17 6 9 1017.3 1017.1 6.6
 
Date/Time
EDT
Temp
°C
App
Temp
°C
Dew
Point
Rel
Hum
%
Delta-T
°C
Wind Press
QNH
hPa
Press
MSL
hPa
Rain
since 9 am
mm
Dir
 
Spd
km/h
Gust
km/h
Spd
kts
Gust
kts
19/11:30pm 22.6 25.2 22.6 100 0.0 N 13 20 7 11 1017.4 - 4.4
19/11:00pm 22.6 24.8 21.8 95 0.5 N 13 22 7 12 1017.7 - 0.6
19/10:30pm 22.8 24.7 22.0 95 0.5 NNE 15 22 8 12 1017.7 - 0.4
19/10:00pm 22.6 24.6 21.6 94 0.7 NNE 13 20 7 11 1017.8 - 0.4
19/09:30pm 22.3 23.9 20.8 91 1.0 ENE 13 19 7 10 1017.6 - 0.4
19/09:00pm 22.7 24.7 21.5 93 0.8 ENE 13 19 7 10 1017.5 1017.3 0.4
19/08:30pm 22.7 24.3 21.5 93 0.8 E 15 24 8 13 1017.3 - 0.4
19/08:00pm 22.7 24.3 21.5 93 0.8 E 15 22 8 12 1017.4 - 0.4
19/07:30pm 23.0 22.9 20.7 87 1.5 E 22 28 12 15 1017.2 - 0.0
19/07:00pm 23.0 23.6 21.3 90 1.1 E 20 28 11 15 1016.5 - 0.0
19/06:30pm 23.1 23.1 21.0 88 1.4 E 22 30 12 16 1016.5 - 0.0
19/06:00pm 23.6 24.0 20.9 85 1.8 E 20 26 11 14 1016.8 1016.6 0.0
19/05:30pm 24.0 24.6 21.1 84 1.9 ESE 19 24 10 13 1016.9 - 0.0
19/05:00pm 25.4 24.5 20.6 75 3.1 ESE 26 33 14 18 1016.4 - 0.0
19/04:30pm 25.5 24.0 21.0 76 3.0 SE 30 33 16 18 1016.5 - 0.0
19/04:00pm 25.5 24.4 21.0 76 3.0 SE 28 35 15 19 1016.5 - 0.0
19/03:30pm 25.5 24.9 21.2 77 2.8 SE 26 32 14 17 1017.1 - 0.0
19/03:00pm 25.5 25.0 20.7 75 3.1 SE 24 30 13 16 1017.6 1017.5 0.0
19/02:30pm 26.7 26.7 21.0 71 3.8 SE 22 28 12 15 1017.9 - 0.0
19/02:00pm 26.9 27.4 21.2 71 3.8 SE 20 24 11 13 1018.4 - 0.0
19/01:30pm 27.1 28.0 21.6 72 3.7 SE 19 24 10 13 1018.7 - 0.0
19/01:00pm 27.3 29.1 22.5 75 3.2 ESE 17 20 9 11 1019.0 - 0.0
19/12:30pm 27.1 28.5 21.8 73 3.5 ESE 17 20 9 11 1019.2 - 0.0
19/12:00pm 26.8 28.3 21.3 72 3.6 ESE 15 20 8 11 1019.5 1019.4 0.0
19/11:30am 26.0 27.8 21.9 78 2.7 ESE 15 19 8 10 1019.6 - 0.0

Other Formats:

Comma delimited format used in spreadsheet applications
http://www.bom.gov.au/fwo/IDN60801/IDN60801.94589.axf

JavaScript Object Notation format (JSON) in row-major order
http://www.bom.gov.au/fwo/IDN60801/IDN60801.94589.json